Meath Environmental Platform

Observations for Trim Patrick St

Time AQI Temp °C Hum % Pres Pa CO μg/m³ H₂S μg/m³ NO μg/m³ NO₂ μg/m³ O₃ μg/m³ SO₂ μg/m³ PM1 μg/m³ PM2.5 μg/m³ PM10 μg/m³
Tuesday 4 August 2026
00:33 2 17 85 38,460 0.16 1.18 1.16 24.27 7.02 0 13.14 19.37 21.31
00:32 2 17 85 38,460 0.18 0.97 1.2 23.77 8.5 0.17 15.71 19.37 21.31
00:31 2 17.1 85 38,460 0.16 1.15 1.12 19.28 8.7 0 15.71 20.06 22.07
00:30 2 17.1 85 38,460 0.16 2.41 0.98 30.66 5.66 0 14.86 20.06 22.07
00:29 2 17 85 38,460 0.17 2.12 1.14 21.18 12.34 0.21 14 19.37 21.31
00:28 2 17 85 38,460 0.17 5.7 1.14 35.12 10.93 0 14 22.13 24.35
00:27 2 17 85 38,460 0.17 5.81 1.3 35.72 16.61 0 15.71 21.44 23.59
00:26 2 17.1 85 38,460 0.15 2.72 1.42 23.11 8.75 0 14 19.37 21.31
00:25 2 17 85 38,460 0.18 5.47 1.37 44.05 11.48 0 14.86 20.75 22.83
00:24 2 17 85 38,460 0.16 1.28 1.26 23.28 8.09 0.39 15.71 22.13 24.35
00:23 2 17 85 38,460 0.17 2.56 1.28 26.37 5.5 0 12.29 18 19.79
00:22 2 17 85 38,460 0.16 4.13 1.26 23.04 16.12 0.16 13.14 20.06 22.07
00:21 2 17 85 38,460 0.17 4.39 1.12 41.57 10.03 0 15.71 20.06 22.07
00:20 2 17 85 38,460 0.18 1.68 1.32 24.55 6.82 0.17 14.86 19.37 21.31
00:19 2 17 85 38,460 0.17 1.44 1.17 24.8 8.58 0 14.86 20.06 22.07
00:18 2 17 85 38,460 0.18 1.6 1.15 22.8 11.35 0.02 14 19.37 21.31
00:17 2 17 85 38,460 0.2 4.42 1.13 21.85 9.79 0.13 14 21.45 23.6
00:16 2 17 85 38,460 0.19 8.11 1.06 47.58 10.66 0 15.71 21.48 23.63
00:15 2 17 85 38,460 0.16 1.88 1.23 27.92 6.07 0 15.71 22.83 23.95
00:14 2 17 85 38,460 0.18 2.04 1.36 25.04 9.14 0 15.71 22.83 25.12